Time;durP1;ratioP1;P1;durP2;ratioP2;P2;SDS_P1;SDS_P2;PMS_P1;PMS_P2;Temp;Humidity;BMP_temperature;BMP_pressure;BME280_temperature;BME280_humidity;BME280_pressure;Samples;Min_cycle;Max_cycle;Signal;HPM_P1;HPM_P2
2022/08/07 00:00:38;;;;;;;;;;;;;;;16.15;43.11;96983.88;5046241;28;20004;-72
2022/08/07 00:03:04;;;;;;;;;;;;;;;16.14;43.28;96984.09;5041936;28;20369;-72
2022/08/07 00:05:31;;;;;;;;;;;;;;;16.13;43.29;96987.81;5039386;28;19979;-72
2022/08/07 00:07:57;;;;;;;;;;;;;;;16.10;42.94;96986.41;5045567;28;19961;-83
2022/08/07 00:10:23;;;;;;;;;;;;;;;16.07;43.15;96991.41;5042328;28;20009;-72
2022/08/07 00:12:49;;;;;;;;;;;;;;;16.03;43.05;96986.59;5038011;28;19966;-76
2022/08/07 00:15:15;;;;;;;;;;;;;;;15.99;43.15;96980.16;5035133;28;19966;-73
2022/08/07 00:17:41;;;;;;;;;;;;;;;15.97;43.27;96986.75;5044643;28;19966;-72
2022/08/07 00:20:07;;;;;;;;;;;;;;;15.93;43.05;96978.47;5054057;28;20449;-72
2022/08/07 00:22:33;;;;;;;;;;;;;;;15.92;43.27;96984.03;5034903;28;19960;-72
2022/08/07 00:24:58;;;;;;;;;;;;;;;15.89;43.09;96977.34;5023636;28;20327;-72
2022/08/07 00:27:24;;;;;;;;;;;;;;;15.89;43.19;96987.91;5018031;28;19965;-72
2022/08/07 00:29:50;;;;;;;;;;;;;;;15.88;42.97;96985.53;5048653;28;20419;-72
2022/08/07 00:32:17;;;;;;;;;;;;;;;15.85;43.34;96984.16;5049696;28;19965;-72
2022/08/07 00:34:47;;;;;;;;;;;;;;;15.81;43.54;96989.13;5034495;28;19958;-72
2022/08/07 00:37:14;;;;;;;;;;;;;;;15.77;43.45;96987.19;5034286;28;19965;-72
2022/08/07 00:39:40;;;;;;;;;;;;;;;15.71;43.51;96985.47;5044388;28;19962;-72
2022/08/07 00:42:06;;;;;;;;;;;;;;;15.67;43.54;96989.63;5048377;28;19964;-72
2022/08/07 00:44:33;;;;;;;;;;;;;;;15.62;43.49;96987.66;5047988;28;20019;-72
2022/08/07 00:47:03;;;;;;;;;;;;;;;15.59;43.64;96996.88;5035055;28;19968;-72
2022/08/07 00:49:29;;;;;;;;;;;;;;;15.53;43.63;96994.38;5046773;28;19957;-72
2022/08/07 00:51:55;;;;;;;;;;;;;;;15.46;43.84;96985.81;5050875;28;19954;-72
2022/08/07 00:54:21;;;;;;;;;;;;;;;15.39;44.29;96989.38;5034078;28;20377;-72
2022/08/07 00:56:48;;;;;;;;;;;;;;;15.33;43.94;96990.31;5037861;28;19958;-72
2022/08/07 00:59:14;;;;;;;;;;;;;;;15.29;44.35;96981.25;5035491;28;19959;-71
2022/08/07 01:01:40;;;;;;;;;;;;;;;15.23;44.67;96979.56;5049034;28;20326;-72
2022/08/07 01:04:06;;;;;;;;;;;;;;;15.19;44.78;96984.50;5048598;28;20363;-71
2022/08/07 01:06:32;;;;;;;;;;;;;;;15.16;44.40;96982.31;5040009;28;20446;-72
2022/08/07 01:08:59;;;;;;;;;;;;;;;15.11;44.71;96978.78;5037764;28;19956;-73
2022/08/07 01:11:25;;;;;;;;;;;;;;;15.06;44.67;96982.13;5041745;28;19958;-73
2022/08/07 01:13:51;;;;;;;;;;;;;;;15.06;44.67;96983.97;5036467;28;19967;-74
2022/08/07 01:16:17;;;;;;;;;;;;;;;15.05;44.79;96974.41;5045438;28;20452;-72
2022/08/07 01:18:43;;;;;;;;;;;;;;;15.05;45.31;96987.63;5033946;28;20052;-72
2022/08/07 01:21:12;;;;;;;;;;;;;;;15.05;44.92;96982.34;5041842;28;20424;-73
2022/08/07 01:23:39;;;;;;;;;;;;;;;15.04;44.93;96984.19;5045734;28;19956;-72
2022/08/07 01:26:06;;;;;;;;;;;;;;;15.03;44.92;96977.28;5040989;28;19974;-73
2022/08/07 01:28:32;;;;;;;;;;;;;;;15.04;45.22;96975.47;5041822;28;19989;-73
2022/08/07 01:31:00;;;;;;;;;;;;;;;15.02;45.33;96978.34;5033092;28;19963;-73
2022/08/07 01:33:26;;;;;;;;;;;;;;;15.00;44.83;96965.34;5035328;28;19963;-73
2022/08/07 01:35:52;;;;;;;;;;;;;;;14.99;45.16;96968.22;5044665;28;19957;-72
2022/08/07 01:38:18;;;;;;;;;;;;;;;14.97;45.27;96963.19;5048572;28;19983;-73
2022/08/07 01:40:44;;;;;;;;;;;;;;;14.95;45.38;96967.91;5039247;28;19962;-73
2022/08/07 01:43:10;;;;;;;;;;;;;;;14.95;45.39;96969.72;5036464;28;19989;-73
2022/08/07 01:45:37;;;;;;;;;;;;;;;14.91;45.03;96969.41;5035623;28;19975;-74
2022/08/07 01:48:03;;;;;;;;;;;;;;;14.90;45.47;96965.13;5041536;28;19972;-73
2022/08/07 01:50:30;;;;;;;;;;;;;;;14.87;45.40;96968.25;5043197;28;19956;-73
2022/08/07 01:52:57;;;;;;;;;;;;;;;14.84;45.45;96963.44;5046358;28;19961;-72
2022/08/07 01:55:28;;;;;;;;;;;;;;;14.87;47.41;96970.09;5041741;28;19980;-72
2022/08/07 01:57:56;;;;;;;;;;;;;;;15.00;46.82;96960.06;5046109;28;20369;-72
2022/08/07 02:00:25;;;;;;;;;;;;;;;15.15;45.88;96953.50;5039656;28;19964;-72
2022/08/07 02:03:00;;;;;;;;;;;;;;;15.30;45.76;96953.78;5038546;28;19963;-72
2022/08/07 02:05:41;;;;;;;;;;;;;;;15.38;45.29;96950.75;5057226;28;20331;-71
2022/08/07 02:08:09;;;;;;;;;;;;;;;15.44;45.91;96954.31;5048054;28;19972;-72
2022/08/07 02:10:36;;;;;;;;;;;;;;;15.50;45.49;96950.72;5057193;28;19949;-71
2022/08/07 02:13:03;;;;;;;;;;;;;;;15.55;45.60;96960.59;5035396;28;19961;-72
2022/08/07 02:15:30;;;;;;;;;;;;;;;15.62;45.92;96946.19;5052370;28;20419;-71
2022/08/07 02:17:56;;;;;;;;;;;;;;;15.66;45.39;96946.50;5040897;28;19977;-71
2022/08/07 02:20:23;;;;;;;;;;;;;;;15.69;45.25;96948.69;5044347;28;20354;-71
2022/08/07 02:22:51;;;;;;;;;;;;;;;15.72;45.57;96948.22;5040053;28;20333;-71
2022/08/07 02:25:18;;;;;;;;;;;;;;;15.75;45.12;96941.69;5047892;28;19965;-71
2022/08/07 02:27:46;;;;;;;;;;;;;;;15.73;44.75;96933.19;5038961;28;19958;-73
2022/08/07 02:30:12;;;;;;;;;;;;;;;15.72;44.91;96934.22;5046156;28;19956;-72
2022/08/07 02:32:38;;;;;;;;;;;;;;;15.67;45.18;96934.09;5039928;28;20354;-71
2022/08/07 02:35:06;;;;;;;;;;;;;;;15.63;45.26;96934.56;5050732;28;19963;-71
2022/08/07 02:37:34;;;;;;;;;;;;;;;15.64;45.68;96927.44;5044676;28;19977;-71
2022/08/07 02:40:00;;;;;;;;;;;;;;;15.63;45.14;96926.63;5046735;28;19956;-71
2022/08/07 02:42:27;;;;;;;;;;;;;;;15.63;44.94;96923.19;5051751;28;19967;-72
2022/08/07 02:44:55;;;;;;;;;;;;;;;15.59;45.33;96928.16;5048341;28;20344;-71
2022/08/07 02:47:21;;;;;;;;;;;;;;;15.59;45.17;96927.34;5036529;28;19972;-71
2022/08/07 02:49:47;;;;;;;;;;;;;;;15.56;45.32;96927.81;5042947;28;19960;-71
2022/08/07 02:52:16;;;;;;;;;;;;;;;15.56;45.78;96933.94;5057904;28;19962;-71
2022/08/07 02:54:42;;;;;;;;;;;;;;;15.55;45.16;96936.78;5045522;28;19954;-72
2022/08/07 02:57:12;;;;;;;;;;;;;;;15.46;45.20;96936.38;5026497;28;19969;-72
2022/08/07 02:59:40;;;;;;;;;;;;;;;15.39;44.92;96938.34;5057101;28;19955;-71
2022/08/07 03:02:06;;;;;;;;;;;;;;;15.29;45.34;96938.97;5042736;28;19960;-71
2022/08/07 03:04:32;;;;;;;;;;;;;;;15.22;44.89;96940.94;5049435;28;19965;-71
2022/08/07 03:06:58;;;;;;;;;;;;;;;15.14;45.53;96944.78;5039900;28;20330;-71
2022/08/07 03:09:24;;;;;;;;;;;;;;;15.09;46.16;96949.94;5045219;28;20332;-73
2022/08/07 03:11:50;;;;;;;;;;;;;;;15.06;46.53;96960.19;5042629;28;20337;-71
2022/08/07 03:14:16;;;;;;;;;;;;;;;15.02;46.67;96955.38;5054486;28;19993;-71
2022/08/07 03:16:42;;;;;;;;;;;;;;;15.00;46.30;96954.78;5038258;28;20326;-71
2022/08/07 03:19:08;;;;;;;;;;;;;;;14.98;46.82;96956.06;5045899;28;19964;-72
2022/08/07 03:21:36;;;;;;;;;;;;;;;14.99;46.64;96960.28;5047763;28;19964;-72
2022/08/07 03:24:02;;;;;;;;;;;;;;;15.02;47.24;96957.22;5044362;28;19960;-73
2022/08/07 03:26:30;;;;;;;;;;;;;;;15.05;47.20;96961.22;5042016;28;20353;-72
2022/08/07 03:28:58;;;;;;;;;;;;;;;15.08;47.04;96956.28;5044884;28;19988;-73
2022/08/07 03:31:25;;;;;;;;;;;;;;;15.11;47.02;96953.16;5040044;28;19954;-72
2022/08/07 03:33:59;;;;;;;;;;;;;;;15.14;47.03;96957.97;5041211;28;19958;-73
2022/08/07 03:36:26;;;;;;;;;;;;;;;15.15;47.29;96962.22;5038181;28;19956;-72
2022/08/07 03:38:54;;;;;;;;;;;;;;;15.17;47.12;96956.69;5046862;28;19961;-72
2022/08/07 03:41:20;;;;;;;;;;;;;;;15.17;47.12;96951.41;5035560;28;19956;-72
2022/08/07 03:43:46;;;;;;;;;;;;;;;15.15;47.03;96951.66;5051520;28;19963;-71
2022/08/07 03:46:13;;;;;;;;;;;;;;;15.16;47.50;96952.44;5049538;28;19969;-72
2022/08/07 03:48:39;;;;;;;;;;;;;;;15.15;47.58;96945.56;5049630;28;20008;-72
2022/08/07 03:51:06;;;;;;;;;;;;;;;15.12;47.07;96946.03;5041752;28;19963;-71
2022/08/07 03:53:32;;;;;;;;;;;;;;;15.07;46.97;96948.56;5052827;28;19962;-71
2022/08/07 03:55:59;;;;;;;;;;;;;;;15.01;47.35;96958.22;5040220;28;19964;-72
2022/08/07 03:58:25;;;;;;;;;;;;;;;14.98;47.81;96954.22;5045226;28;19964;-72
2022/08/07 04:00:52;;;;;;;;;;;;;;;15.00;47.58;96956.63;5039653;28;19957;-73
2022/08/07 04:03:18;;;;;;;;;;;;;;;15.00;48.00;96951.34;5045610;28;19953;-72
2022/08/07 04:05:44;;;;;;;;;;;;;;;14.99;47.80;96955.00;5041918;28;20449;-73
2022/08/07 04:08:12;;;;;;;;;;;;;;;14.97;47.96;96957.91;5048281;28;19959;-72
2022/08/07 04:10:41;;;;;;;;;;;;;;;14.97;47.91;96963.19;5041927;28;20437;-77
2022/08/07 04:13:12;;;;;;;;;;;;;;;14.97;48.32;96972.94;5043328;28;19964;-71
2022/08/07 04:15:38;;;;;;;;;;;;;;;14.97;47.72;96965.84;5045117;28;19952;-79
2022/08/07 04:18:04;;;;;;;;;;;;;;;14.97;47.57;96986.97;5045822;28;19965;-71
2022/08/07 04:20:30;;;;;;;;;;;;;;;14.86;47.38;96986.97;5039112;28;19960;-72
2022/08/07 04:22:56;;;;;;;;;;;;;;;14.76;47.86;96987.53;5042891;28;20062;-72
2022/08/07 04:25:23;;;;;;;;;;;;;;;14.71;48.45;96992.72;5043573;28;19963;-72
2022/08/07 04:27:49;;;;;;;;;;;;;;;14.65;48.20;96989.16;5045652;28;19984;-72
2022/08/07 04:30:15;;;;;;;;;;;;;;;14.60;48.12;96994.34;5053984;28;19962;-72
2022/08/07 04:32:41;;;;;;;;;;;;;;;14.59;48.53;96992.72;5048713;28;19968;-71
2022/08/07 04:35:08;;;;;;;;;;;;;;;14.56;48.86;96988.69;5042192;28;19953;-72
2022/08/07 04:37:34;;;;;;;;;;;;;;;14.53;49.52;96993.59;5050322;28;20337;-72
2022/08/07 04:40:00;;;;;;;;;;;;;;;14.48;48.99;96989.00;5040749;28;19965;-71
2022/08/07 04:42:31;;;;;;;;;;;;;;;14.45;49.05;96986.84;5036933;28;20334;-82
2022/08/07 04:44:57;;;;;;;;;;;;;;;14.47;49.25;96987.41;5043543;28;20328;-72
2022/08/07 04:47:42;;;;;;;;;;;;;;;14.48;49.70;96982.94;5040452;28;20332;-72
2022/08/07 04:50:17;;;;;;;;;;;;;;;14.51;49.45;96985.94;5035857;28;19961;-71
2022/08/07 04:52:58;;;;;;;;;;;;;;;14.59;49.62;96982.97;5042067;28;19972;-71
2022/08/07 04:55:24;;;;;;;;;;;;;;;14.67;48.96;96981.00;5038425;28;19978;-71
2022/08/07 04:58:05;;;;;;;;;;;;;;;14.76;49.41;96985.72;5038553;28;19985;-72
2022/08/07 05:00:50;;;;;;;;;;;;;;;14.89;49.24;96989.13;5033211;28;20443;-71
2022/08/07 05:03:19;;;;;;;;;;;;;;;15.07;49.15;96983.72;5042338;28;19961;-74
2022/08/07 05:05:58;;;;;;;;;;;;;;;15.26;49.33;96986.19;5040619;28;19955;-71
2022/08/07 05:08:33;;;;;;;;;;;;;;;15.47;48.63;96982.91;5043895;28;19963;-71
2022/08/07 05:11:11;;;;;;;;;;;;;;;15.69;47.54;96977.78;5033581;28;19965;-71
2022/08/07 05:13:42;;;;;;;;;;;;;;;15.89;47.90;96969.41;5038272;28;19966;-72
2022/08/07 05:16:09;;;;;;;;;;;;;;;16.07;47.25;96971.03;5041062;28;19973;-72
2022/08/07 05:18:38;;;;;;;;;;;;;;;16.22;47.35;96973.13;5045241;28;19963;-72
2022/08/07 05:21:08;;;;;;;;;;;;;;;16.34;46.46;96973.84;5048310;28;19957;-72
2022/08/07 05:23:39;;;;;;;;;;;;;;;16.45;46.72;96982.75;5045594;28;19978;-72
2022/08/07 05:26:09;;;;;;;;;;;;;;;16.60;46.60;96979.50;5032890;28;19955;-72
2022/08/07 05:28:36;;;;;;;;;;;;;;;16.76;46.43;96981.34;5046287;28;20468;-72
2022/08/07 05:31:02;;;;;;;;;;;;;;;16.94;45.80;96969.66;5038204;28;20357;-71
2022/08/07 05:33:30;;;;;;;;;;;;;;;17.09;45.70;96981.50;5048501;28;19960;-71
2022/08/07 05:35:57;;;;;;;;;;;;;;;17.32;45.54;96988.41;5043660;28;20038;-72
2022/08/07 05:38:23;;;;;;;;;;;;;;;17.53;44.98;96978.84;5050917;28;19964;-72
2022/08/07 05:40:50;;;;;;;;;;;;;;;17.78;44.54;96979.09;5052050;28;19963;-72
2022/08/07 05:43:16;;;;;;;;;;;;;;;18.04;44.07;96980.19;5050190;28;19968;-73
2022/08/07 05:45:43;;;;;;;;;;;;;;;18.36;44.04;96987.31;5043287;28;19971;-72
2022/08/07 05:48:09;;;;;;;;;;;;;;;18.69;43.57;96984.63;5040559;28;19956;-71
2022/08/07 05:50:35;;;;;;;;;;;;;;;18.97;43.34;96986.16;5053821;28;19969;-72
2022/08/07 05:53:01;;;;;;;;;;;;;;;19.24;42.88;96988.66;5054637;28;19961;-72
2022/08/07 05:55:28;;;;;;;;;;;;;;;19.49;43.24;96987.97;5044236;28;19959;-72
2022/08/07 05:57:54;;;;;;;;;;;;;;;19.73;42.55;96982.97;5050612;28;19975;-71
2022/08/07 06:00:20;;;;;;;;;;;;;;;19.95;42.27;96977.44;5057968;28;19962;-72
2022/08/07 06:02:47;;;;;;;;;;;;;;;20.18;42.24;96988.59;5056019;28;20414;-72
2022/08/07 06:05:14;;;;;;;;;;;;;;;20.31;41.51;96982.78;5040080;28;19966;-71
2022/08/07 06:07:40;;;;;;;;;;;;;;;20.39;41.52;96982.22;5043738;28;19960;-72
2022/08/07 06:10:08;;;;;;;;;;;;;;;20.54;41.51;96976.09;5056486;28;19968;-72
2022/08/07 06:12:34;;;;;;;;;;;;;;;20.76;41.47;96980.34;5049640;28;19960;-72
2022/08/07 06:15:01;;;;;;;;;;;;;;;20.86;41.35;96977.66;5052681;28;20073;-74
2022/08/07 06:17:26;;;;;;;;;;;;;;;20.97;41.14;96967.75;5039207;28;20428;-71
2022/08/07 06:19:53;;;;;;;;;;;;;;;21.04;41.36;96971.75;5052606;28;19963;-72
2022/08/07 06:22:19;;;;;;;;;;;;;;;21.19;41.24;96967.41;5046599;28;19970;-72
2022/08/07 06:24:46;;;;;;;;;;;;;;;21.22;41.11;96969.53;5050345;28;20273;-73
2022/08/07 06:27:22;;;;;;;;;;;;;;;21.30;40.96;96976.97;5043358;28;19992;-72
2022/08/07 06:29:48;;;;;;;;;;;;;;;21.45;41.04;96984.91;5053812;28;19980;-73
2022/08/07 06:32:14;;;;;;;;;;;;;;;21.52;41.08;96976.59;5040393;28;19966;-75
2022/08/07 06:34:40;;;;;;;;;;;;;;;21.58;41.21;96977.38;5055570;28;19961;-72
2022/08/07 06:37:06;;;;;;;;;;;;;;;21.63;41.20;96978.16;5040697;28;19973;-73
2022/08/07 06:39:32;;;;;;;;;;;;;;;21.74;41.19;96973.56;5053522;28;20036;-72
2022/08/07 06:42:13;;;;;;;;;;;;;;;21.87;41.12;96972.13;5038876;28;20075;-73
2022/08/07 06:44:39;;;;;;;;;;;;;;;21.94;41.13;96977.16;5053272;28;19955;-73
2022/08/07 06:47:05;;;;;;;;;;;;;;;21.97;41.00;96976.63;5045583;28;19961;-73
2022/08/07 06:49:31;;;;;;;;;;;;;;;22.10;41.08;96979.44;5045450;28;19962;-72
2022/08/07 06:51:58;;;;;;;;;;;;;;;22.35;40.25;96969.66;5040508;28;19962;-73
2022/08/07 06:54:25;;;;;;;;;;;;;;;22.59;40.73;96976.91;5042741;28;20312;-73
2022/08/07 06:56:53;;;;;;;;;;;;;;;22.81;40.68;96969.22;5040734;28;20435;-77
2022/08/07 06:59:21;;;;;;;;;;;;;;;22.96;40.12;96965.56;5049910;28;19977;-73
2022/08/07 07:01:48;;;;;;;;;;;;;;;23.05;40.73;96976.47;5038920;28;19958;-73
2022/08/07 07:04:14;;;;;;;;;;;;;;;23.15;40.23;96973.69;5047073;28;19964;-73
2022/08/07 07:06:40;;;;;;;;;;;;;;;23.24;40.99;96977.31;5034365;28;20331;-73
2022/08/07 07:09:15;;;;;;;;;;;;;;;23.34;40.66;96980.94;5042888;28;19960;-73
2022/08/07 07:11:47;;;;;;;;;;;;;;;23.43;40.17;96966.63;5042504;28;19952;-74
2022/08/07 07:14:15;;;;;;;;;;;;;;;23.51;40.21;96981.25;5034551;28;19962;-73
2022/08/07 07:16:42;;;;;;;;;;;;;;;23.61;40.56;96977.66;5051736;28;20351;-73
2022/08/07 07:19:10;;;;;;;;;;;;;;;23.56;40.85;96981.22;5034962;28;19962;-73
2022/08/07 07:21:39;;;;;;;;;;;;;;;23.61;42.03;96988.38;5040298;28;19958;-75
2022/08/07 07:24:05;;;;;;;;;;;;;;;23.74;42.08;96986.84;5034454;28;19955;-75
2022/08/07 07:26:33;;;;;;;;;;;;;;;23.80;41.60;96988.41;5033589;28;19967;-73
2022/08/07 07:29:01;;;;;;;;;;;;;;;23.60;41.63;96986.75;5033034;28;19978;-76
2022/08/07 07:31:31;;;;;;;;;;;;;;;23.21;41.75;96977.88;5035907;28;19960;-74
2022/08/07 07:34:00;;;;;;;;;;;;;;;23.07;42.96;96985.00;5033647;28;19961;-74
2022/08/07 07:36:27;;;;;;;;;;;;;;;22.96;44.68;96992.31;5040665;28;19957;-73
2022/08/07 07:38:53;;;;;;;;;;;;;;;23.07;43.19;96987.69;5040998;28;21425;-73
2022/08/07 07:41:20;;;;;;;;;;;;;;;22.84;43.20;96982.00;5037403;28;19960;-74
2022/08/07 07:43:49;;;;;;;;;;;;;;;22.88;43.02;96980.38;5067376;28;20335;-74
2022/08/07 07:46:16;;;;;;;;;;;;;;;23.00;42.60;96977.31;5045057;28;19960;-74
2022/08/07 07:48:43;;;;;;;;;;;;;;;23.06;43.00;96972.72;5047574;28;19984;-73
2022/08/07 07:51:11;;;;;;;;;;;;;;;23.19;42.46;96969.34;5043119;28;19985;-73
2022/08/07 07:53:41;;;;;;;;;;;;;;;23.34;41.91;96967.56;5040268;28;19970;-73
2022/08/07 07:56:08;;;;;;;;;;;;;;;23.56;41.90;96964.31;5050151;28;19950;-73
2022/08/07 07:58:36;;;;;;;;;;;;;;;23.65;41.79;96958.03;5044571;28;19990;-73
2022/08/07 08:01:03;;;;;;;;;;;;;;;23.74;41.57;96963.53;5044375;28;20416;-73
2022/08/07 08:03:30;;;;;;;;;;;;;;;23.80;40.91;96965.09;5044086;28;19957;-73
2022/08/07 08:05:56;;;;;;;;;;;;;;;23.70;41.57;96968.66;5044758;28;19960;-74
2022/08/07 08:08:26;;;;;;;;;;;;;;;23.60;40.96;96965.34;5048506;28;19960;-73
2022/08/07 08:10:53;;;;;;;;;;;;;;;23.50;41.76;96960.94;5044033;28;19962;-73
2022/08/07 08:13:21;;;;;;;;;;;;;;;23.47;41.37;96961.50;5043328;28;19966;-73
2022/08/07 08:15:47;;;;;;;;;;;;;;;23.37;41.47;96956.28;5040266;28;19958;-74
2022/08/07 08:18:14;;;;;;;;;;;;;;;23.35;41.54;96951.22;5048775;28;19973;-73
2022/08/07 08:20:41;;;;;;;;;;;;;;;23.36;41.04;96944.00;5049384;28;19955;-73
2022/08/07 08:27:03;;;;;;;;;;;;;;;23.30;41.73;96957.44;4991618;28;19955;-73
2022/08/07 08:28:53;;;;;;;;;;;;;;;23.60;40.97;96955.44;5039993;28;19990;-73
2022/08/07 08:31:28;;;;;;;;;;;;;;;23.56;40.31;96949.06;5044919;28;19966;-74
2022/08/07 08:33:55;;;;;;;;;;;;;;;23.50;40.62;96950.22;5044430;28;19951;-73
2022/08/07 08:36:27;;;;;;;;;;;;;;;23.63;40.98;96949.50;5045162;28;20434;-73
2022/08/07 08:38:55;;;;;;;;;;;;;;;23.41;40.18;96955.41;5042038;28;19972;-73
2022/08/07 08:41:21;;;;;;;;;;;;;;;23.34;40.14;96954.19;5040957;28;19963;-73
2022/08/07 08:43:47;;;;;;;;;;;;;;;23.22;41.42;96952.72;5043113;28;20367;-73
2022/08/07 08:46:31;;;;;;;;;;;;;;;23.26;40.72;96956.41;5048560;28;20377;-73
2022/08/07 08:49:03;;;;;;;;;;;;;;;23.45;40.28;96940.38;5036219;28;20329;-73
2022/08/07 08:51:45;;;;;;;;;;;;;;;23.37;40.18;96941.03;5048673;28;20341;-74
2022/08/07 08:54:11;;;;;;;;;;;;;;;23.31;40.64;96939.50;5029807;28;19957;-73
2022/08/07 08:56:45;;;;;;;;;;;;;;;23.47;37.92;96926.69;5040207;28;19957;-73
2022/08/07 08:59:20;;;;;;;;;;;;;;;23.46;39.13;96935.84;5033221;28;19966;-73
2022/08/07 09:01:52;;;;;;;;;;;;;;;23.32;38.48;96933.06;5038438;28;20358;-73
2022/08/07 09:04:28;;;;;;;;;;;;;;;23.40;38.66;96934.31;5037216;28;19968;-74
2022/08/07 09:07:02;;;;;;;;;;;;;;;23.55;39.46;96942.13;5038462;28;20357;-74
2022/08/07 09:09:28;;;;;;;;;;;;;;;23.82;38.56;96929.97;5047565;28;19954;-73
2022/08/07 09:12:03;;;;;;;;;;;;;;;23.69;37.12;96928.81;5041023;28;19963;-73
2022/08/07 09:14:35;;;;;;;;;;;;;;;23.67;36.91;96920.28;5046119;28;19978;-73
2022/08/07 09:17:06;;;;;;;;;;;;;;;23.81;38.72;96941.78;5038096;28;19975;-73
2022/08/07 09:19:51;;;;;;;;;;;;;;;23.85;38.06;96926.72;5043355;28;20457;-74
2022/08/07 09:22:17;;;;;;;;;;;;;;;23.94;37.31;96926.84;5043958;28;19969;-73
2022/08/07 09:24:58;;;;;;;;;;;;;;;23.89;35.93;96925.81;5045133;28;19961;-74
2022/08/07 09:27:50;;;;;;;;;;;;;;;23.84;37.03;96917.88;5043312;28;19966;-73
2022/08/07 09:30:16;;;;;;;;;;;;;;;23.99;36.40;96924.09;4991663;28;19961;-74
2022/08/07 09:32:42;;;;;;;;;;;;;;;24.10;37.64;96934.34;5001305;28;19966;-73
2022/08/07 09:35:11;;;;;;;;;;;;;;;24.09;36.92;96927.41;5002322;28;19958;-73
2022/08/07 09:37:40;;;;;;;;;;;;;;;24.18;36.96;96932.09;5003975;28;19977;-75
2022/08/07 09:40:22;;;;;;;;;;;;;;;24.29;36.50;96923.56;4997191;28;19963;-73
2022/08/07 09:42:55;;;;;;;;;;;;;;;24.25;36.01;96924.44;5007501;28;20330;-74
2022/08/07 09:45:27;;;;;;;;;;;;;;;23.96;35.96;96927.34;5001818;28;20410;-73
2022/08/07 09:48:12;;;;;;;;;;;;;;;23.88;36.82;96934.19;5013087;28;19983;-73
2022/08/07 09:50:49;;;;;;;;;;;;;;;23.64;35.83;96928.88;4988140;28;19952;-75
2022/08/07 09:53:16;;;;;;;;;;;;;;;23.63;36.18;96925.41;4992264;28;20435;-73
2022/08/07 09:56:00;;;;;;;;;;;;;;;23.78;36.63;96923.63;4994713;28;19963;-73
2022/08/07 09:58:29;;;;;;;;;;;;;;;23.76;36.59;96923.09;4998836;28;19984;-73
2022/08/07 10:01:08;;;;;;;;;;;;;;;23.64;36.79;96926.19;4997020;28;19953;-74
2022/08/07 10:03:33;;;;;;;;;;;;;;;23.58;35.95;96908.59;4997295;28;20335;-74
2022/08/07 10:06:18;;;;;;;;;;;;;;;23.46;36.18;96911.75;5010688;28;19959;-74
2022/08/07 10:09:03;;;;;;;;;;;;;;;23.29;36.88;96909.56;4990472;28;19965;-74
2022/08/07 10:11:45;;;;;;;;;;;;;;;23.15;37.04;96909.47;4984737;28;19967;-73
2022/08/07 10:14:28;;;;;;;;;;;;;;;23.44;37.29;96909.34;4987853;28;19969;-73
2022/08/07 10:17:13;;;;;;;;;;;;;;;23.70;37.23;96901.72;5005501;28;19959;-74
2022/08/07 10:19:39;;;;;;;;;;;;;;;23.89;36.42;96898.25;5003994;28;19961;-73
2022/08/07 10:22:08;;;;;;;;;;;;;;;23.97;35.27;96888.75;5010927;28;20296;-74
2022/08/07 10:24:44;;;;;;;;;;;;;;;24.07;35.27;96878.66;5005363;28;20402;-73
2022/08/07 10:27:19;;;;;;;;;;;;;;;24.16;34.61;96872.63;5007976;28;20399;-73
2022/08/07 10:30:06;;;;;;;;;;;;;;;24.35;35.41;96889.44;5036422;28;19977;-73
2022/08/07 10:32:55;;;;;;;;;;;;;;;24.31;34.65;96869.66;5051249;28;19959;-73
2022/08/07 10:35:26;;;;;;;;;;;;;;;24.59;35.73;96875.88;5048447;28;19963;-73
2022/08/07 10:38:03;;;;;;;;;;;;;;;24.87;34.30;96863.25;5041702;28;19975;-73
2022/08/07 10:40:41;;;;;;;;;;;;;;;24.91;32.78;96858.09;5038987;28;20334;-74
2022/08/07 10:43:16;;;;;;;;;;;;;;;24.67;32.27;96879.75;5044663;28;19959;-73
2022/08/07 10:45:45;;;;;;;;;;;;;;;24.59;32.01;96878.56;5046394;28;19960;-73
2022/08/07 10:48:15;;;;;;;;;;;;;;;24.68;33.19;96866.03;5045344;28;19953;-74
2022/08/07 10:50:54;;;;;;;;;;;;;;;24.69;32.30;96858.78;5047798;28;19953;-74
2022/08/07 10:53:33;;;;;;;;;;;;;;;24.96;31.47;96849.13;5051669;28;19960;-73
2022/08/07 10:55:58;;;;;;;;;;;;;;;25.27;32.84;96857.34;5035611;28;19958;-74
2022/08/07 10:58:24;;;;;;;;;;;;;;;25.24;29.75;96856.06;5038021;28;19979;-73
2022/08/07 11:01:03;;;;;;;;;;;;;;;25.30;32.26;96862.91;5049311;28;19953;-73
2022/08/07 11:03:36;;;;;;;;;;;;;;;25.14;30.03;96858.94;5051524;28;19958;-75
2022/08/07 11:06:10;;;;;;;;;;;;;;;25.26;30.77;96851.19;5036912;28;19956;-73
2022/08/07 11:08:50;;;;;;;;;;;;;;;25.31;31.33;96861.81;5040438;28;19970;-75
2022/08/07 11:11:19;;;;;;;;;;;;;;;25.37;30.10;96835.63;5027596;28;19955;-74
2022/08/07 11:13:54;;;;;;;;;;;;;;;25.28;30.37;96835.56;5049505;28;19959;-73
2022/08/07 11:16:27;;;;;;;;;;;;;;;25.31;31.71;96834.94;5046926;28;19962;-73
2022/08/07 11:18:57;;;;;;;;;;;;;;;25.61;31.16;96829.97;5045676;28;19972;-73
2022/08/07 11:21:43;;;;;;;;;;;;;;;25.73;31.16;96837.47;5041241;28;19963;-73
2022/08/07 11:24:45;;;;;;;;;;;;;;;25.76;29.51;96825.31;5047417;28;19972;-73
2022/08/07 11:27:30;;;;;;;;;;;;;;;25.61;28.59;96826.47;4979085;28;19965;-74
2022/08/07 11:30:10;;;;;;;;;;;;;;;25.61;30.06;96834.53;5041341;28;19976;-74
2022/08/07 11:32:44;;;;;;;;;;;;;;;25.90;30.01;96832.22;5050717;28;19970;-73
2022/08/07 11:35:14;;;;;;;;;;;;;;;26.21;28.50;96819.91;5036831;28;19977;-74
2022/08/07 11:37:43;;;;;;;;;;;;;;;26.46;28.54;96813.03;5042759;28;19973;-74
2022/08/07 11:40:12;;;;;;;;;;;;;;;26.50;27.00;96822.03;5046242;28;19984;-73
2022/08/07 11:42:45;;;;;;;;;;;;;;;26.48;27.25;96818.88;5043203;28;19957;-73
2022/08/07 11:45:31;;;;;;;;;;;;;;;26.58;26.36;96828.59;5047425;28;19961;-73
2022/08/07 11:48:00;;;;;;;;;;;;;;;26.65;28.08;96829.72;5033235;28;20406;-73
2022/08/07 11:50:26;;;;;;;;;;;;;;;26.64;27.55;96825.44;5040155;28;19953;-73
2022/08/07 11:53:01;;;;;;;;;;;;;;;26.35;27.65;96815.19;5040428;28;19959;-73
2022/08/07 11:55:46;;;;;;;;;;;;;;;26.57;29.37;96821.66;5045932;28;19960;-73
2022/08/07 11:58:12;;;;;;;;;;;;;;;26.93;28.46;96818.69;5049651;28;19977;-74
2022/08/07 12:00:50;;;;;;;;;;;;;;;26.97;28.34;96824.25;5043887;28;19992;-74
2022/08/07 12:03:24;;;;;;;;;;;;;;;26.98;27.05;96806.97;5041001;28;19961;-73
2022/08/07 12:06:05;;;;;;;;;;;;;;;26.92;28.17;96819.78;5043964;28;19959;-73
2022/08/07 12:08:37;;;;;;;;;;;;;;;26.83;27.32;96816.31;5041923;28;19953;-73
2022/08/07 12:11:12;;;;;;;;;;;;;;;26.48;26.77;96810.81;5044390;28;19958;-73
2022/08/07 12:13:38;;;;;;;;;;;;;;;26.20;26.53;96799.47;5044271;28;19963;-74
2022/08/07 12:16:06;;;;;;;;;;;;;;;26.35;27.94;96804.44;5045608;28;19956;-73
2022/08/07 12:18:47;;;;;;;;;;;;;;;26.57;27.82;96797.44;5033332;28;19976;-73
2022/08/07 12:21:31;;;;;;;;;;;;;;;26.59;25.83;96792.53;5039752;28;19951;-73
2022/08/07 12:24:00;;;;;;;;;;;;;;;26.84;28.28;96799.84;5041712;28;19961;-73
2022/08/07 12:26:44;;;;;;;;;;;;;;;27.10;27.92;96793.69;5049875;28;19958;-73
2022/08/07 12:29:28;;;;;;;;;;;;;;;27.36;28.09;96792.91;5046997;28;20335;-74
2022/08/07 12:31:54;;;;;;;;;;;;;;;27.32;27.11;96788.19;5045843;28;19962;-74
2022/08/07 12:34:21;;;;;;;;;;;;;;;27.37;27.27;96795.31;5039694;28;19981;-74
2022/08/07 12:36:47;;;;;;;;;;;;;;;27.24;25.73;96782.81;5050203;28;19968;-75
2022/08/07 12:39:14;;;;;;;;;;;;;;;27.17;27.28;96794.00;5046421;28;19977;-74
2022/08/07 12:41:40;;;;;;;;;;;;;;;27.31;26.77;96791.97;5041303;28;19986;-74
2022/08/07 12:44:07;;;;;;;;;;;;;;;27.31;25.95;96788.50;5045763;28;19962;-74
2022/08/07 12:46:53;;;;;;;;;;;;;;;27.16;25.74;96778.19;5049897;28;19956;-74
2022/08/07 12:49:32;;;;;;;;;;;;;;;27.08;25.97;96790.53;5048417;28;20324;-73
2022/08/07 12:52:09;;;;;;;;;;;;;;;27.12;26.42;96792.25;5044920;28;19955;-74
2022/08/07 12:54:43;;;;;;;;;;;;;;;26.99;26.31;96789.75;5026503;28;19966;-73
2022/08/07 12:57:09;;;;;;;;;;;;;;;26.91;26.54;96791.31;5042941;28;19965;-74
2022/08/07 12:59:36;;;;;;;;;;;;;;;27.12;27.30;96788.78;5049680;28;19968;-74
2022/08/07 13:02:33;;;;;;;;;;;;;;;27.05;26.30;96780.41;5044123;28;19953;-73
2022/08/07 13:05:17;;;;;;;;;;;;;;;26.75;26.07;96780.19;5037941;28;19952;-74